createdAt,value
2022-08-20T00:02:14.770Z,59.67
2022-08-20T00:04:43.016Z,53.47
2022-08-20T00:07:11.236Z,51.83
2022-08-20T00:09:39.425Z,106.37
2022-08-20T00:12:08.420Z,73.80
2022-08-20T00:14:38.641Z,52.37
2022-08-20T00:17:07.089Z,59.87
2022-08-20T00:19:35.616Z,52.70
2022-08-20T00:22:03.732Z,62.23
2022-08-20T00:24:32.998Z,58.67
2022-08-20T00:27:01.383Z,43.47
2022-08-20T00:29:29.712Z,42.50
2022-08-20T00:31:59.525Z,52.83
2022-08-20T00:34:28.109Z,86.47
2022-08-20T00:36:56.363Z,64.40
2022-08-20T00:39:24.505Z,73.33
2022-08-20T00:41:53.072Z,55.97
2022-08-20T00:44:23.886Z,74.43
2022-08-20T00:46:53.412Z,60.57
2022-08-20T00:49:26.592Z,72.20
2022-08-20T00:51:58.997Z,74.83
2022-08-20T00:54:31.144Z,69.50
2022-08-20T00:57:04.051Z,95.53
2022-08-20T00:59:35.676Z,79.40
2022-08-20T01:02:05.405Z,87.83
2022-08-20T01:04:36.571Z,135.70
2022-08-20T01:07:06.786Z,112.50
2022-08-20T01:09:57.574Z,74.73
2022-08-20T01:12:25.717Z,77.43
2022-08-20T01:14:54.273Z,77.87
2022-08-20T01:17:25.715Z,98.77
2022-08-20T01:20:00.488Z,87.80
2022-08-20T01:22:52.919Z,65.77
2022-08-20T01:25:29.617Z,90.13
2022-08-20T01:28:00.124Z,79.20
2022-08-20T01:30:30.058Z,80.77
2022-08-20T01:32:58.444Z,67.17
2022-08-20T01:35:29.393Z,107.90
2022-08-20T01:37:57.796Z,79.23
2022-08-20T01:40:51.546Z,104.93
2022-08-20T01:43:21.587Z,79.27
2022-08-20T01:45:53.058Z,74.73
2022-08-20T01:48:21.949Z,66.47
2022-08-20T01:50:59.709Z,88.10
2022-08-20T01:53:33.590Z,65.40
2022-08-20T01:56:02.992Z,68.60
2022-08-20T01:58:33.884Z,131.27
2022-08-20T02:01:02.165Z,81.03
2022-08-20T02:03:34.964Z,78.07
2022-08-20T02:06:06.501Z,105.03
2022-08-20T02:08:34.721Z,108.13
2022-08-20T02:11:03.092Z,93.90
2022-08-20T02:13:32.903Z,143.00
2022-08-20T02:16:01.088Z,97.00
2022-08-20T02:18:29.231Z,102.67
2022-08-20T02:20:57.423Z,87.37
2022-08-20T02:23:25.614Z,80.90
2022-08-20T02:25:53.941Z,86.43
2022-08-20T02:28:22.119Z,82.60
2022-08-20T02:30:55.345Z,75.53
2022-08-20T02:33:25.444Z,73.27
2022-08-20T02:35:56.576Z,78.10
2022-08-20T02:38:25.568Z,64.20
2022-08-20T02:40:53.955Z,69.63
2022-08-20T02:43:22.176Z,69.00
2022-08-20T02:45:51.746Z,63.10
2022-08-20T02:48:23.073Z,60.57
2022-08-20T02:50:54.200Z,68.77
2022-08-20T02:53:22.633Z,59.43
2022-08-20T02:55:51.146Z,57.97
2022-08-20T02:58:19.808Z,70.30
2022-08-20T03:00:48.416Z,52.37
2022-08-20T03:03:22.479Z,65.80
2022-08-20T03:05:53.726Z,56.10
2022-08-20T03:08:23.359Z,53.20
2022-08-20T03:10:52.649Z,58.70
2022-08-20T03:13:22.255Z,58.13
2022-08-20T03:15:56.608Z,83.37
2022-08-20T03:18:30.920Z,67.87
2022-08-20T03:20:59.200Z,62.73
2022-08-20T03:23:27.951Z,81.13
2022-08-20T03:25:56.280Z,58.27
2022-08-20T03:28:24.875Z,60.23
2022-08-20T03:30:54.795Z,66.00
2022-08-20T03:33:23.594Z,84.83
2022-08-20T03:35:53.155Z,87.23
2022-08-20T03:38:32.854Z,77.23
2022-08-20T03:41:02.645Z,64.73
2022-08-20T03:43:31.348Z,130.40
2022-08-20T03:45:59.611Z,88.10
2022-08-20T03:48:27.938Z,156.97
2022-08-20T03:51:00.737Z,107.37
2022-08-20T03:53:31.656Z,84.27
2022-08-20T03:56:03.665Z,84.97
2022-08-20T03:58:35.257Z,87.07
2022-08-20T04:01:06.634Z,99.63
2022-08-20T04:03:35.096Z,116.37
2022-08-20T04:06:05.150Z,94.80
2022-08-20T04:08:33.350Z,94.00
2022-08-20T04:11:01.980Z,101.77
2022-08-20T04:13:31.784Z,91.27
2022-08-20T04:16:03.556Z,107.53
2022-08-20T04:18:32.565Z,104.67
2022-08-20T04:21:00.708Z,103.53
2022-08-20T04:23:31.241Z,91.20
2022-08-20T04:25:59.528Z,88.70
2022-08-20T04:28:28.487Z,84.93
2022-08-20T04:30:58.564Z,90.67
2022-08-20T04:33:35.330Z,88.43
2022-08-20T04:36:06.287Z,86.90
2022-08-20T04:38:48.422Z,93.30
2022-08-20T04:41:22.675Z,81.83
2022-08-20T04:43:54.172Z,69.30
2022-08-20T04:46:26.040Z,55.53
2022-08-20T04:48:54.499Z,50.97
2022-08-20T04:51:24.309Z,54.30
2022-08-20T04:53:56.218Z,53.37
2022-08-20T04:56:27.500Z,52.53
2022-08-20T04:58:57.981Z,46.73
2022-08-20T05:01:27.292Z,47.40
2022-08-20T05:03:56.334Z,48.17
2022-08-20T05:06:28.620Z,36.93
2022-08-20T05:09:01.649Z,32.93
2022-08-20T05:11:33.914Z,38.43
2022-08-20T05:14:03.353Z,39.07
2022-08-20T05:16:37.937Z,34.80
2022-08-20T05:19:07.041Z,29.93
2022-08-20T05:21:35.360Z,29.60
2022-08-20T05:24:05.614Z,30.33
2022-08-20T05:26:34.441Z,30.50
2022-08-20T05:29:05.530Z,26.70
2022-08-20T05:31:34.899Z,27.03
2022-08-20T05:34:03.410Z,26.40
2022-08-20T05:36:31.788Z,26.70
2022-08-20T05:39:00.105Z,24.20
2022-08-20T05:41:30.540Z,25.53
2022-08-20T05:44:01.864Z,23.37
2022-08-20T05:46:31.511Z,25.23
2022-08-20T05:49:01.594Z,24.77
2022-08-20T05:51:30.563Z,21.97
2022-08-20T05:53:59.436Z,23.63
2022-08-20T05:56:31.241Z,20.63
2022-08-20T05:59:02.327Z,20.10
2022-08-20T06:01:30.618Z,21.33
2022-08-20T06:04:16.525Z,17.80
2022-08-20T06:06:47.155Z,21.40
2022-08-20T06:09:31.844Z,26.23
2022-08-20T06:12:03.743Z,16.67
2022-08-20T06:14:32.867Z,18.37
2022-08-20T06:17:06.562Z,18.80
2022-08-20T06:19:35.931Z,15.40
2022-08-20T06:22:18.343Z,14.00
2022-08-20T06:24:51.253Z,15.67
2022-08-20T06:27:21.061Z,15.37
2022-08-20T06:29:49.947Z,14.53
2022-08-20T06:32:19.967Z,12.30
2022-08-20T06:35:02.008Z,13.10
2022-08-20T06:37:31.875Z,12.33
2022-08-20T06:40:04.640Z,12.57
2022-08-20T06:42:34.487Z,11.90
2022-08-20T06:45:04.962Z,14.87
2022-08-20T06:47:34.085Z,16.17
2022-08-20T06:50:02.315Z,10.97
2022-08-20T06:52:52.535Z,8.57
2022-08-20T06:55:18.809Z,15.10
2022-08-20T06:57:48.984Z,9.40
2022-08-20T07:00:19.448Z,10.40
2022-08-20T07:02:48.203Z,10.60
2022-08-20T07:05:17.079Z,10.80
2022-08-20T07:07:47.573Z,8.83
2022-08-20T07:10:17.035Z,11.47
2022-08-20T07:12:46.811Z,10.53
2022-08-20T07:15:17.004Z,15.17
2022-08-20T07:17:50.865Z,15.90
2022-08-20T07:20:19.594Z,19.90
2022-08-20T07:22:47.792Z,21.30
2022-08-20T07:25:17.739Z,21.20
2022-08-20T07:27:47.254Z,21.20
2022-08-20T07:30:56.798Z,19.57
2022-08-20T07:33:24.925Z,24.90
2022-08-20T07:35:53.152Z,23.13
2022-08-20T07:38:24.615Z,21.63
2022-08-20T07:40:54.140Z,31.07
2022-08-20T07:43:23.256Z,25.23
2022-08-20T07:45:55.813Z,23.67
2022-08-20T07:48:31.951Z,32.33
2022-08-20T07:51:03.479Z,28.63
2022-08-20T07:53:35.619Z,26.90
2022-08-20T07:56:07.064Z,26.53
2022-08-20T07:58:37.219Z,28.07
2022-08-20T08:01:08.022Z,31.47
2022-08-20T08:03:41.073Z,24.57
2022-08-20T08:06:29.647Z,18.53
2022-08-20T08:09:03.152Z,11.03
2022-08-20T08:11:32.992Z,11.80
2022-08-20T08:14:01.571Z,8.47
2022-08-20T08:16:32.679Z,6.70
2022-08-20T08:19:02.047Z,5.57
2022-08-20T08:21:31.356Z,6.90
2022-08-20T08:24:00.131Z,4.60
2022-08-20T08:26:29.021Z,5.50
2022-08-20T08:28:58.320Z,5.30
2022-08-20T08:31:26.988Z,5.53
2022-08-20T08:33:56.751Z,4.40
2022-08-20T08:36:27.295Z,4.70
2022-08-20T08:38:55.935Z,5.30
2022-08-20T08:41:31.386Z,3.83
2022-08-20T08:44:08.222Z,7.00
2022-08-20T08:46:41.706Z,5.23
2022-08-20T08:49:15.632Z,5.67
2022-08-20T08:51:46.588Z,7.73
2022-08-20T08:54:17.744Z,6.70
2022-08-20T08:56:49.986Z,6.43
2022-08-20T08:59:20.817Z,6.77
2022-08-20T09:01:54.085Z,6.90
2022-08-20T09:04:31.910Z,5.70
2022-08-20T09:07:02.839Z,5.93
2022-08-20T09:09:35.589Z,5.70
2022-08-20T09:12:06.762Z,4.80
2022-08-20T09:14:35.900Z,4.87
2022-08-20T09:17:05.070Z,5.00
2022-08-20T09:19:34.890Z,5.73
2022-08-20T09:22:09.739Z,4.57
2022-08-20T09:24:38.293Z,5.53
2022-08-20T09:27:07.062Z,5.23
2022-08-20T09:29:35.763Z,5.63
2022-08-20T09:32:09.327Z,4.60
2022-08-20T09:34:40.768Z,5.20
2022-08-20T09:37:09.604Z,5.60
2022-08-20T09:39:38.418Z,6.13
2022-08-20T09:42:11.192Z,6.50
2022-08-20T09:44:40.010Z,8.10
2022-08-20T09:47:08.589Z,11.37
2022-08-20T09:49:37.433Z,9.33
2022-08-20T09:52:09.884Z,7.40
2022-08-20T09:54:46.192Z,9.77
2022-08-20T09:57:16.105Z,10.17
2022-08-20T09:59:44.729Z,6.23
2022-08-20T10:02:12.962Z,7.50
2022-08-20T10:04:41.155Z,7.30
2022-08-20T10:07:11.116Z,10.33
2022-08-20T10:09:39.994Z,8.40
2022-08-20T10:12:08.910Z,8.07
2022-08-20T10:14:37.129Z,8.97
2022-08-20T10:17:05.840Z,8.67
2022-08-20T10:19:34.118Z,9.23
2022-08-20T10:22:02.635Z,9.10
2022-08-20T10:24:32.538Z,12.90
2022-08-20T10:27:02.376Z,10.63
2022-08-20T10:29:31.384Z,12.07
2022-08-20T10:32:12.090Z,10.03
2022-08-20T10:34:41.039Z,9.77
2022-08-20T10:37:09.376Z,10.37
2022-08-20T10:39:39.256Z,10.00
2022-08-20T10:42:07.840Z,8.83
2022-08-20T10:44:36.084Z,10.10
2022-08-20T10:47:17.050Z,10.13
2022-08-20T10:49:45.416Z,11.67
2022-08-20T10:52:13.620Z,10.00
2022-08-20T10:54:43.131Z,10.60
2022-08-20T10:57:15.188Z,11.30
2022-08-20T10:59:44.914Z,11.87
2022-08-20T11:02:14.102Z,15.53
2022-08-20T11:04:42.291Z,11.00
2022-08-20T11:07:19.019Z,10.47
2022-08-20T11:09:49.855Z,7.47
2022-08-20T11:12:19.948Z,7.67
2022-08-20T11:14:48.991Z,6.30
2022-08-20T11:17:21.935Z,6.37
2022-08-20T11:19:50.647Z,8.23
2022-08-20T11:22:19.585Z,4.90
2022-08-20T11:24:49.237Z,6.47
2022-08-20T11:27:22.768Z,5.10
2022-08-20T11:29:51.223Z,5.73
2022-08-20T11:32:19.875Z,5.27
2022-08-20T11:34:48.594Z,5.03
2022-08-20T11:37:18.337Z,7.43
2022-08-20T11:39:48.244Z,4.80
2022-08-20T11:42:16.947Z,5.03
2022-08-20T11:44:45.124Z,6.53
2022-08-20T11:47:24.454Z,7.03
2022-08-20T11:49:59.543Z,7.00
2022-08-20T11:52:28.604Z,13.60
2022-08-20T11:54:59.700Z,13.10
2022-08-20T11:57:30.121Z,13.63
2022-08-20T12:00:00.701Z,19.90
2022-08-20T12:02:29.782Z,26.90
2022-08-20T12:05:00.573Z,30.67
2022-08-20T12:07:28.785Z,31.70
2022-08-20T12:09:58.419Z,41.80
2022-08-20T12:12:26.799Z,44.10
2022-08-20T12:14:56.337Z,35.57
2022-08-20T12:17:27.362Z,40.30
2022-08-20T12:19:58.757Z,39.17
2022-08-20T12:22:27.217Z,36.23
2022-08-20T12:24:55.948Z,41.63
2022-08-20T12:27:27.183Z,34.93
2022-08-20T12:29:57.457Z,38.43
2022-08-20T12:32:27.602Z,32.07
2022-08-20T12:34:56.611Z,32.00
2022-08-20T12:37:27.715Z,33.70
2022-08-20T12:39:58.588Z,31.70
2022-08-20T12:42:30.516Z,32.30
2022-08-20T12:44:59.515Z,32.93
2022-08-20T12:47:29.905Z,36.60
2022-08-20T12:50:01.514Z,33.60
2022-08-20T12:52:31.189Z,38.83
2022-08-20T12:55:00.111Z,36.40
2022-08-20T12:57:32.021Z,37.80
2022-08-20T13:00:03.760Z,40.63
2022-08-20T13:02:33.342Z,38.23
2022-08-20T13:05:04.960Z,41.50
2022-08-20T13:07:34.113Z,40.57
2022-08-20T13:10:03.210Z,42.20
2022-08-20T13:12:32.763Z,41.73
2022-08-20T13:15:00.984Z,45.20
2022-08-20T13:17:38.146Z,47.17
2022-08-20T13:20:10.018Z,46.67
2022-08-20T13:22:38.415Z,46.27
2022-08-20T13:25:07.469Z,45.47
2022-08-20T13:27:38.403Z,47.07
2022-08-20T13:30:08.324Z,44.23
2022-08-20T13:32:36.948Z,44.70
2022-08-20T13:35:05.892Z,52.60
2022-08-20T13:37:34.488Z,44.33
2022-08-20T13:40:03.117Z,45.73
2022-08-20T13:42:31.370Z,48.92
2022-08-20T13:45:00.929Z,42.20
2022-08-20T13:47:30.905Z,45.57
2022-08-20T13:50:01.021Z,46.30
2022-08-20T13:52:29.902Z,44.50
2022-08-20T13:54:58.089Z,41.20
2022-08-20T13:57:26.809Z,41.80
2022-08-20T13:59:56.788Z,41.50
2022-08-20T14:02:27.709Z,40.90
2022-08-20T14:04:56.019Z,35.27
2022-08-20T14:07:31.643Z,35.07
2022-08-20T14:10:03.292Z,34.67
2022-08-20T14:12:31.755Z,29.90
2022-08-20T14:15:00.014Z,23.43
2022-08-20T14:17:31.481Z,25.30
2022-08-20T14:20:07.019Z,25.13
2022-08-20T14:22:36.808Z,24.90
2022-08-20T14:25:05.757Z,26.63
2022-08-20T14:27:34.688Z,25.63
2022-08-20T14:30:05.589Z,31.33
2022-08-20T14:32:35.168Z,29.10
2022-08-20T14:35:03.491Z,31.90
2022-08-20T14:37:33.700Z,33.30
2022-08-20T14:40:03.768Z,34.10
2022-08-20T14:42:32.116Z,30.83
2022-08-20T14:45:02.221Z,32.13
2022-08-20T14:47:32.221Z,42.10
2022-08-20T14:50:04.929Z,35.90
2022-08-20T14:52:36.549Z,36.15
2022-08-20T14:55:06.349Z,33.85
2022-08-20T14:57:35.299Z,33.20
2022-08-20T15:00:04.070Z,36.97
2022-08-20T15:02:32.325Z,27.98
2022-08-20T15:05:02.949Z,28.67
2022-08-20T15:07:35.112Z,27.40
2022-08-20T15:10:06.423Z,29.60
2022-08-20T15:12:35.289Z,26.03
2022-08-20T15:15:15.343Z,27.40
2022-08-20T15:17:46.409Z,25.23
2022-08-20T15:20:20.306Z,27.60
2022-08-20T15:22:49.922Z,26.20
2022-08-20T15:25:21.524Z,23.00
2022-08-20T15:27:49.902Z,27.75
2022-08-20T15:30:20.545Z,27.93
2022-08-20T15:32:54.092Z,28.40
2022-08-20T15:35:25.689Z,26.67
2022-08-20T15:37:55.732Z,24.63
2022-08-20T15:40:28.546Z,24.53
2022-08-20T15:42:57.371Z,25.00
2022-08-20T15:45:25.736Z,28.00
2022-08-20T15:47:57.261Z,21.13
2022-08-20T15:51:00.425Z,25.50
2022-08-20T15:53:34.270Z,26.43
2022-08-20T15:56:12.871Z,25.37
2022-08-20T15:58:47.052Z,23.73
2022-08-20T16:01:26.601Z,21.77
2022-08-20T16:04:25.239Z,19.03
2022-08-20T16:07:01.587Z,21.90
2022-08-20T16:09:45.822Z,15.90
2022-08-20T16:12:20.579Z,18.23
2022-08-20T16:14:51.731Z,18.13
2022-08-20T16:17:36.062Z,19.63
2022-08-20T16:20:11.046Z,18.47
2022-08-20T16:22:44.180Z,15.43
2022-08-20T16:25:13.510Z,14.30
2022-08-20T16:27:50.525Z,12.00
2022-08-20T16:30:22.402Z,13.70
2022-08-20T16:33:00.545Z,14.30
2022-08-20T16:35:32.908Z,12.30
2022-08-20T16:38:21.171Z,13.88
2022-08-20T16:40:52.544Z,13.10
2022-08-20T16:43:27.555Z,12.30
2022-08-20T16:46:00.293Z,14.82
2022-08-20T16:48:36.741Z,12.63
2022-08-20T16:51:08.932Z,12.07
2022-08-20T16:53:38.472Z,14.47
2022-08-20T16:56:07.052Z,12.53
2022-08-20T16:58:35.281Z,17.67
2022-08-20T17:01:11.693Z,14.45
2022-08-20T17:03:40.967Z,17.70
2022-08-20T17:06:19.449Z,13.77
2022-08-20T17:08:51.404Z,10.52
2022-08-20T17:11:27.243Z,10.98
2022-08-20T17:14:09.812Z,13.10
2022-08-20T17:16:41.214Z,11.68
2022-08-20T17:19:13.107Z,11.60
2022-08-20T17:21:42.080Z,10.50
2022-08-20T17:24:19.274Z,19.70
2022-08-20T17:26:50.203Z,11.32
2022-08-20T17:29:23.654Z,11.68
2022-08-20T17:31:54.173Z,16.45
2022-08-20T17:34:25.685Z,19.45
2022-08-20T17:36:56.186Z,15.73
2022-08-20T17:39:28.072Z,16.52
2022-08-20T17:42:04.112Z,17.67
2022-08-20T17:44:35.908Z,15.80
2022-08-20T17:47:12.339Z,20.25
2022-08-20T17:49:53.241Z,14.50
2022-08-20T17:52:38.789Z,17.60
2022-08-20T17:55:11.649Z,16.30
2022-08-20T17:57:44.242Z,21.02
2022-08-20T18:00:16.409Z,15.55
2022-08-20T18:02:45.577Z,20.30
2022-08-20T18:05:19.085Z,20.25
2022-08-20T18:08:08.200Z,17.10
2022-08-20T18:10:43.416Z,25.00
2022-08-20T18:13:18.920Z,19.90
2022-08-20T18:15:53.643Z,21.42
2022-08-20T18:18:31.575Z,22.08
2022-08-20T18:21:26.923Z,23.13
2022-08-20T18:24:00.440Z,23.25
2022-08-20T18:26:33.745Z,26.33
2022-08-20T18:29:10.246Z,24.85
2022-08-20T18:31:46.293Z,20.75
2022-08-20T18:34:16.742Z,20.08
2022-08-20T18:36:55.600Z,21.70
2022-08-20T18:39:28.043Z,21.70
2022-08-20T18:42:03.360Z,30.95
2022-08-20T18:44:40.192Z,27.52
2022-08-20T18:47:20.426Z,24.40
2022-08-20T18:49:59.851Z,24.30
2022-08-20T18:52:31.531Z,30.73
2022-08-20T18:55:01.841Z,27.45
2022-08-20T18:57:41.466Z,41.13
2022-08-20T19:00:14.675Z,34.20
2022-08-20T19:02:57.502Z,28.75
2022-08-20T19:05:29.359Z,30.75
2022-08-20T19:08:00.280Z,32.58
2022-08-20T19:10:41.588Z,35.15
2022-08-20T19:13:57.528Z,38.35
2022-08-20T19:16:34.812Z,33.17
2022-08-20T19:19:03.286Z,42.42
2022-08-20T19:21:35.421Z,38.70
2022-08-20T19:24:07.768Z,41.38
2022-08-20T19:26:45.993Z,41.50
2022-08-20T19:29:17.329Z,39.85
2022-08-20T19:31:48.257Z,40.90
2022-08-20T19:34:22.789Z,46.05
2022-08-20T19:36:58.386Z,47.92
2022-08-20T19:39:30.311Z,43.72
2022-08-20T19:42:03.700Z,55.40
2022-08-20T19:44:37.780Z,46.40
2022-08-20T19:47:19.979Z,61.40
2022-08-20T19:50:00.630Z,51.08
2022-08-20T19:52:40.604Z,47.65
2022-08-20T19:55:19.266Z,44.33
2022-08-20T19:57:55.257Z,47.63
2022-08-20T20:00:25.647Z,49.40
2022-08-20T20:02:55.688Z,47.38
2022-08-20T20:05:24.363Z,54.38
2022-08-20T20:07:58.481Z,52.67
2022-08-20T20:10:32.671Z,44.72
2022-08-20T20:13:08.756Z,55.17
2022-08-20T20:15:38.156Z,49.35
2022-08-20T20:18:08.553Z,44.42
2022-08-20T20:20:55.742Z,47.97
2022-08-20T20:23:45.778Z,41.38
2022-08-20T20:26:21.052Z,50.50
2022-08-20T20:28:52.886Z,42.22
2022-08-20T20:31:25.509Z,46.15
2022-08-20T20:33:58.161Z,42.80
2022-08-20T20:36:36.425Z,46.40
2022-08-20T20:39:13.756Z,40.85
2022-08-20T20:41:52.455Z,45.17
2022-08-20T20:44:24.203Z,74.65
2022-08-20T20:46:56.789Z,44.88
2022-08-20T20:49:28.695Z,48.17
2022-08-20T20:52:01.308Z,44.58
2022-08-20T20:54:40.518Z,59.13
2022-08-20T20:57:11.791Z,59.83
2022-08-20T20:59:40.297Z,51.25
2022-08-20T21:02:09.482Z,93.47
2022-08-20T21:04:42.515Z,54.20
2022-08-20T21:07:13.123Z,58.53
2022-08-20T21:09:43.040Z,73.00
2022-08-20T21:12:12.608Z,64.95
2022-08-20T21:14:40.929Z,66.68
2022-08-20T21:17:12.923Z,60.97
2022-08-20T21:19:45.278Z,68.03
2022-08-20T21:22:13.704Z,64.13
2022-08-20T21:24:41.961Z,64.22
2022-08-20T21:27:12.582Z,62.85
2022-08-20T21:29:41.453Z,59.72
2022-08-20T21:32:13.013Z,57.97
2022-08-20T21:34:44.980Z,72.20
2022-08-20T21:37:14.150Z,65.85
2022-08-20T21:39:43.074Z,63.80
2022-08-20T21:42:28.095Z,67.53
2022-08-20T21:44:57.512Z,88.93
2022-08-20T21:47:26.077Z,72.43
2022-08-20T21:49:55.679Z,63.03
2022-08-20T21:52:23.933Z,59.65
2022-08-20T21:54:53.418Z,62.33
2022-08-20T21:57:24.896Z,78.05
2022-08-20T21:59:53.733Z,74.28
2022-08-20T22:02:25.282Z,78.18
2022-08-20T22:04:55.417Z,60.15
2022-08-20T22:07:23.604Z,69.00
2022-08-20T22:09:51.796Z,59.92
2022-08-20T22:12:22.963Z,69.75
2022-08-20T22:14:51.456Z,62.05
2022-08-20T22:17:20.137Z,67.93
2022-08-20T22:19:48.460Z,59.30
2022-08-20T22:22:19.427Z,68.70
2022-08-20T22:24:47.816Z,92.85
2022-08-20T22:27:16.052Z,90.15
2022-08-20T22:29:44.193Z,76.38
2022-08-20T22:32:13.925Z,68.13
2022-08-20T22:34:42.461Z,73.05
2022-08-20T22:37:12.292Z,75.10
2022-08-20T22:39:41.952Z,70.72
2022-08-20T22:42:10.512Z,73.63
2022-08-20T22:44:38.687Z,67.53
2022-08-20T22:47:10.771Z,84.22
2022-08-20T22:49:41.541Z,116.10
2022-08-20T22:52:11.981Z,80.05
2022-08-20T22:54:44.725Z,73.38
2022-08-20T22:57:14.655Z,80.90
2022-08-20T22:59:49.661Z,90.32
2022-08-20T23:02:23.333Z,81.38
2022-08-20T23:04:51.774Z,91.53
2022-08-20T23:07:20.450Z,87.22
2022-08-20T23:09:50.254Z,83.82
2022-08-20T23:12:18.422Z,78.65
2022-08-20T23:14:46.652Z,76.78
2022-08-20T23:17:19.175Z,81.32
2022-08-20T23:19:49.044Z,132.15
2022-08-20T23:22:17.950Z,87.60
2022-08-20T23:24:47.069Z,83.72
2022-08-20T23:27:20.781Z,83.10
2022-08-20T23:29:49.397Z,79.70
2022-08-20T23:32:18.163Z,73.47
2022-08-20T23:34:46.730Z,94.63
2022-08-20T23:37:18.866Z,77.78
2022-08-20T23:39:48.145Z,93.47
2022-08-20T23:42:18.291Z,86.47
2022-08-20T23:44:46.488Z,90.80
2022-08-20T23:47:20.806Z,84.63
2022-08-20T23:49:49.165Z,98.88
2022-08-20T23:52:17.470Z,82.22
2022-08-20T23:54:45.676Z,86.72
2022-08-20T23:57:13.898Z,95.65
2022-08-20T23:59:43.587Z,89.65
